Time;durP1;ratioP1;P1;durP2;ratioP2;P2;SDS_P1;SDS_P2;PMS_P1;PMS_P2;Temp;Humidity;BMP_temperature;BMP_pressure;BME280_temperature;BME280_humidity;BME280_pressure;Samples;Min_cycle;Max_cycle;Signal;HPM_P1;HPM_P2
2021/12/19 00:09:50;;;;;;;8.60;2.67;;;7.50;99.90;;;;;;5108733;28;20423;-71
2021/12/19 00:12:16;;;;;;;5.32;1.85;;;7.60;99.90;;;;;;5083079;28;20039;-70
2021/12/19 00:14:41;;;;;;;6.22;1.65;;;10.10;99.90;;;;;;5075614;28;20050;-71
2021/12/19 00:17:07;;;;;;;6.15;1.55;;;7.50;99.90;;;;;;5074520;28;20048;-71
2021/12/19 00:19:33;;;;;;;5.70;1.42;;;7.60;99.90;;;;;;5092303;28;20036;-71
2021/12/19 00:21:58;;;;;;;4.10;1.40;;;7.40;99.90;;;;;;5074897;28;20079;-71
2021/12/19 00:24:24;;;;;;;4.68;1.60;;;7.50;99.90;;;;;;5091340;28;20158;-71
2021/12/19 00:26:50;;;;;;;4.97;1.60;;;9.50;99.90;;;;;;5089975;28;20047;-71
2021/12/19 00:29:16;;;;;;;5.30;1.67;;;10.80;99.90;;;;;;5078074;28;20052;-71
2021/12/19 00:31:45;;;;;;;7.10;1.30;;;7.50;99.90;;;;;;5094599;28;20511;-71
2021/12/19 00:34:12;;;;;;;4.82;1.20;;;7.40;99.90;;;;;;5078386;28;20434;-71
2021/12/19 00:36:40;;;;;;;6.25;1.17;;;8.10;99.90;;;;;;5078832;28;20075;-71
2021/12/19 00:39:06;;;;;;;6.25;1.40;;;9.30;99.90;;;;;;5093915;28;20082;-71
2021/12/19 00:41:32;;;;;;;4.43;0.98;;;7.50;99.90;;;;;;5094469;28;20035;-71
2021/12/19 00:44:11;;;;;;;3.55;1.05;;;7.50;99.90;;;;;;5110604;28;20096;-71
2021/12/19 00:46:52;;;;;;;4.53;1.33;;;7.50;99.90;;;;;;5078072;28;20070;-71
2021/12/19 00:49:19;;;;;;;5.30;1.83;;;7.30;99.90;;;;;;5094328;28;20043;-70
2021/12/19 00:51:46;;;;;;;6.40;2.00;;;;;;;;;;5094232;28;20051;-71
2021/12/19 00:54:13;;;;;;;5.75;1.65;;;7.60;99.90;;;;;;5094488;28;20481;-71
2021/12/19 00:56:44;;;;;;;6.13;1.77;;;7.40;99.90;;;;;;5094089;28;20046;-71
2021/12/19 00:59:11;;;;;;;4.68;1.70;;;9.80;99.90;;;;;;5093789;28;20043;-71
2021/12/19 01:01:37;;;;;;;5.18;2.03;;;;;;;;;;5078397;28;20532;-70
2021/12/19 01:04:10;;;;;;;6.90;1.98;;;7.60;99.90;;;;;;5094393;28;20047;-71
2021/12/19 01:06:41;;;;;;;6.25;1.95;;;7.50;99.90;;;;;;5093969;28;20079;-72
2021/12/19 01:09:08;;;;;;;3.17;1.13;;;7.60;99.90;;;;;;5094184;28;20050;-71
2021/12/19 01:11:35;;;;;;;3.72;1.42;;;7.40;99.90;;;;;;5079166;28;20519;-71
2021/12/19 01:14:01;;;;;;;4.25;1.23;;;7.50;99.90;;;;;;5056451;28;20049;-71
2021/12/19 01:16:27;;;;;;;5.68;1.23;;;11.10;99.90;;;;;;5074296;28;20040;-71
2021/12/19 01:18:52;;;;;;;6.63;1.45;;;8.50;99.90;;;;;;5074754;28;20063;-71
2021/12/19 01:21:18;;;;;;;5.53;1.40;;;7.40;99.90;;;;;;5093658;28;20035;-71
2021/12/19 01:23:44;;;;;;;5.32;1.80;;;7.50;99.90;;;;;;5094849;28;20040;-71
2021/12/19 01:26:10;;;;;;;4.35;1.58;;;7.20;99.90;;;;;;5066828;28;20048;-72
2021/12/19 01:28:36;;;;;;;7.20;1.77;;;8.40;99.90;;;;;;5091259;28;20134;-71
2021/12/19 01:31:03;;;;;;;6.30;1.80;;;7.50;99.90;;;;;;5073872;28;20077;-72
2021/12/19 01:33:28;;;;;;;5.97;1.80;;;7.50;99.90;;;;;;5073222;28;20036;-72
2021/12/19 01:35:54;;;;;;;6.00;1.92;;;7.50;99.90;;;;;;5090864;28;20036;-71
2021/12/19 01:38:20;;;;;;;5.60;1.92;;;7.50;99.90;;;;;;5091939;28;20098;-71
2021/12/19 01:40:46;;;;;;;6.07;1.90;;;7.70;99.90;;;;;;5092574;28;20496;-72
2021/12/19 01:43:12;;;;;;;6.22;1.67;;;7.20;99.90;;;;;;5128374;28;20047;-72
2021/12/19 01:45:39;;;;;;;5.13;1.75;;;7.40;99.90;;;;;;5094453;28;20078;-72
2021/12/19 01:48:12;;;;;;;6.47;2.10;;;7.50;99.90;;;;;;5093116;28;20559;-71
2021/12/19 01:50:40;;;;;;;8.07;2.20;;;7.50;99.90;;;;;;5094780;28;20126;-71
2021/12/19 01:53:07;;;;;;;7.40;1.80;;;7.50;99.90;;;;;;5127679;28;20048;-71
2021/12/19 01:55:34;;;;;;;4.70;1.58;;;7.50;99.90;;;;;;5092504;28;20044;-71
2021/12/19 01:58:00;;;;;;;5.10;1.40;;;7.40;99.90;;;;;;5076847;28;20043;-70
2021/12/19 02:00:31;;;;;;;1.92;0.77;;;7.50;99.90;;;;;;5096266;28;20039;-70
2021/12/19 02:02:57;;;;;;;4.38;1.10;;;7.40;99.90;;;;;;5097442;28;20099;-71
2021/12/19 02:05:25;;;;;;;1.98;0.68;;;4.60;99.90;;;;;;5098243;28;20047;-70
2021/12/19 02:07:52;;;;;;;2.25;0.60;;;7.30;99.90;;;;;;5080906;28;20046;-71
2021/12/19 02:10:20;;;;;;;3.00;0.82;;;7.40;99.90;;;;;;5073105;28;20040;-71
2021/12/19 02:12:50;;;;;;;2.28;0.80;;;7.30;99.90;;;;;;5081179;28;20476;-74
2021/12/19 02:15:22;;;;;;;2.63;0.80;;;8.30;99.90;;;;;;5095607;28;20483;-71
2021/12/19 02:17:51;;;;;;;1.98;0.60;;;7.10;99.90;;;;;;5080650;28;20039;-70
2021/12/19 02:20:17;;;;;;;4.43;0.80;;;7.80;99.90;;;;;;5131629;27;20396;-71
2021/12/19 02:22:43;;;;;;;4.40;0.70;;;9.50;99.90;;;;;;5097023;28;20052;-71
2021/12/19 02:25:10;;;;;;;7.43;1.90;;;7.00;99.90;;;;;;5096518;28;20046;-70
2021/12/19 02:27:37;;;;;;;2.13;0.70;;;7.00;99.90;;;;;;5097817;28;20418;-71
2021/12/19 02:30:07;;;;;;;4.05;0.75;;;7.10;99.90;;;;;;5096432;28;20047;-70
2021/12/19 02:32:35;;;;;;;5.70;1.30;;;7.30;99.90;;;;;;5097583;28;20044;-70
2021/12/19 02:35:05;;;;;;;6.65;1.40;;;7.30;99.90;;;;;;5088612;28;20114;-71
2021/12/19 02:48:11;;;;;;;3.70;0.90;;;7.00;99.90;;;;;;5096893;28;20048;-70
2021/12/19 02:50:44;;;;;;;6.80;1.00;;;7.00;99.90;;;;;;5096931;28;20096;-70
2021/12/19 02:53:11;;;;;;;5.15;0.90;;;9.60;99.90;;;;;;5079746;28;20393;-70
2021/12/19 02:55:37;;;;;;;3.78;1.10;;;7.00;99.90;;;;;;5096553;28;20108;-71
2021/12/19 02:58:02;;;;;;;4.20;1.35;;;7.00;99.90;;;;;;5095349;28;20400;-70
2021/12/19 03:00:28;;;;;;;4.72;1.10;;;6.90;99.90;;;;;;5080631;28;20036;-70
2021/12/19 03:02:54;;;;;;;5.78;1.23;;;7.00;99.90;;;;;;5096803;28;20061;-70
2021/12/19 03:05:20;;;;;;;3.88;1.05;;;8.60;99.90;;;;;;5096192;28;20515;-70
2021/12/19 03:07:49;;;;;;;5.25;1.85;;;7.00;99.90;;;;;;5079793;28;20075;-70
2021/12/19 03:18:15;;;;;;;6.10;1.90;;;;;;;;;;5110270;28;20046;-70
2021/12/19 03:20:42;;;;;;;9.15;1.88;;;7.20;99.90;;;;;;5095717;28;20082;-70
2021/12/19 03:23:11;;;;;;;7.32;2.50;;;6.90;99.90;;;;;;5079244;28;20051;-70
2021/12/19 03:25:37;;;;;;;6.45;2.10;;;7.00;99.90;;;;;;5096159;28;20100;-70
2021/12/19 03:28:07;;;;;;;7.32;2.35;;;7.00;99.90;;;;;;5095103;28;20059;-70
2021/12/19 03:30:33;;;;;;;6.72;2.25;;;6.90;99.90;;;;;;5096632;28;20047;-70
2021/12/19 03:32:59;;;;;;;7.07;2.80;;;6.90;99.90;;;;;;5095274;28;20503;-70
2021/12/19 03:35:25;;;;;;;5.35;1.58;;;6.90;99.90;;;;;;5096929;28;20031;-70
2021/12/19 03:37:52;;;;;;;5.03;1.20;;;7.10;99.90;;;;;;5096048;28;20039;-70
2021/12/19 03:40:34;;;;;;;4.00;0.88;;;6.90;99.90;;;;;;5095355;28;20057;-70
2021/12/19 03:43:00;;;;;;;2.83;0.77;;;6.90;99.90;;;;;;5075723;28;20044;-70
2021/12/19 03:45:26;;;;;;;4.00;1.13;;;6.80;99.90;;;;;;5075998;28;20120;-70
2021/12/19 03:47:52;;;;;;;4.53;1.00;;;6.90;99.90;;;;;;5091949;28;20491;-70
2021/12/19 03:50:22;;;;;;;6.22;1.10;;;7.00;99.90;;;;;;5074048;28;20043;-70
2021/12/19 03:52:48;;;;;;;5.90;1.17;;;6.90;99.90;;;;;;5095804;28;20047;-70
2021/12/19 03:55:14;;;;;;;3.42;0.88;;;7.10;99.90;;;;;;5093635;28;20074;-70
2021/12/19 03:57:39;;;;;;;6.60;1.35;;;8.40;99.90;;;;;;5093216;28;20449;-70
2021/12/19 04:00:09;;;;;;;4.93;1.35;;;7.30;99.90;;;;;;5092294;28;20046;-70
2021/12/19 04:02:35;;;;;;;7.32;2.17;;;7.10;99.90;;;;;;5108907;28;20040;-71
2021/12/19 04:05:00;;;;;;;9.32;1.70;;;7.10;99.90;;;;;;5089732;28;20101;-70
2021/12/19 04:07:28;;;;;;;9.07;2.38;;;7.00;99.90;;;;;;5095655;28;20153;-70
2021/12/19 04:09:57;;;;;;;7.03;2.20;;;8.50;99.90;;;;;;5077300;28;20052;-70
2021/12/19 04:12:25;;;;;;;6.43;1.90;;;7.10;99.90;;;;;;5096001;28;20044;-70
2021/12/19 04:14:51;;;;;;;6.30;2.47;;;7.10;99.90;;;;;;5095664;28;20040;-70
2021/12/19 04:17:17;;;;;;;8.07;2.63;;;9.20;99.90;;;;;;5094794;28;20538;-70
2021/12/19 04:19:42;;;;;;;12.15;3.60;;;7.10;99.90;;;;;;5078747;28;20039;-70
2021/12/19 04:22:08;;;;;;;9.05;3.00;;;7.20;99.90;;;;;;5093938;28;20453;-70
2021/12/19 04:24:34;;;;;;;22.00;3.47;;;7.20;99.90;;;;;;5095166;28;20396;-70
2021/12/19 04:27:00;;;;;;;13.77;3.63;;;7.10;99.90;;;;;;5095344;28;20035;-70
2021/12/19 04:29:26;;;;;;;7.80;3.13;;;7.20;99.90;;;;;;5094689;28;20055;-70
2021/12/19 04:31:52;;;;;;;9.55;3.45;;;7.30;99.90;;;;;;5094475;28;20052;-70
2021/12/19 04:34:19;;;;;;;8.13;3.63;;;7.20;99.90;;;;;;5095177;28;20484;-70
2021/12/19 04:36:49;;;;;;;15.25;3.63;;;7.20;99.90;;;;;;5094535;28;20039;-70
2021/12/19 04:39:34;;;;;;;9.32;3.30;;;9.10;99.90;;;;;;5067788;28;20402;-70
2021/12/19 04:55:43;;;;;;;17.95;5.57;;;8.70;99.90;;;;;;5087173;28;20047;-70
2021/12/19 05:03:42;;;;;;;18.90;6.55;;;7.10;99.90;;;;;;5094811;28;20393;-70
2021/12/19 05:06:31;;;;;;;17.02;5.90;;;8.90;99.90;;;;;;5094096;28;20370;-70
2021/12/19 05:14:32;;;;;;;17.08;7.28;;;7.80;99.90;;;;;;5091356;28;20044;-70
2021/12/19 05:17:04;;;;;;;13.63;6.70;;;7.20;99.90;;;;;;5082754;28;20419;-70
2021/12/19 05:19:43;;;;;;;12.65;5.85;;;7.50;99.90;;;;;;5094176;28;20054;-70
2021/12/19 05:22:09;;;;;;;22.35;7.03;;;7.50;99.90;;;;;;5094418;28;20044;-70
2021/12/19 05:27:04;;;;;;;15.90;7.28;;;7.50;99.90;;;;;;5093478;28;20092;-70
2021/12/19 05:29:31;;;;;;;19.73;8.77;;;7.50;99.90;;;;;;5094293;28;20500;-70
2021/12/19 05:31:57;;;;;;;20.90;9.02;;;7.50;99.90;;;;;;5094042;28;20101;-70
2021/12/19 05:34:23;;;;;;;17.70;6.85;;;7.10;99.90;;;;;;5096813;28;20700;-71
2021/12/19 05:47:55;;;;;;;12.95;3.17;;;7.50;99.90;;;;;;5100204;28;20040;-71
2021/12/19 05:50:22;;;;;;;16.40;3.90;;;8.90;99.90;;;;;;5100964;28;20040;-70
2021/12/19 05:52:49;;;;;;;8.80;3.45;;;7.20;99.90;;;;;;5100707;28;20044;-70
2021/12/19 05:55:16;;;;;;;11.00;3.42;;;7.70;99.90;;;;;;5074636;28;20028;-70
2021/12/19 05:57:42;;;;;;;12.90;3.67;;;10.00;99.90;;;;;;5097797;28;20040;-70
2021/12/19 06:00:14;;;;;;;11.52;3.92;;;7.40;99.90;;;;;;5086616;28;20114;-70
2021/12/19 06:02:43;;;;;;;11.88;3.50;;;7.40;99.90;;;;;;5113382;28;20040;-69
2021/12/19 06:05:10;;;;;;;14.65;4.63;;;7.30;99.90;;;;;;5100740;28;20043;-70
2021/12/19 06:07:36;;;;;;;13.25;3.95;;;7.50;99.90;;;;;;5098734;28;20043;-70
2021/12/19 06:10:04;;;;;;;11.63;4.38;;;8.60;99.90;;;;;;5095123;28;20451;-71
2021/12/19 06:12:31;;;;;;;9.30;3.38;;;7.40;99.90;;;;;;5080212;28;20539;-72
2021/12/19 06:14:58;;;;;;;16.73;4.47;;;10.40;99.90;;;;;;5079643;28;20035;-73
2021/12/19 06:17:24;;;;;;;14.13;4.43;;;7.40;99.90;;;;;;5064226;28;20048;-74
2021/12/19 06:19:50;;;;;;;15.98;4.18;;;7.40;99.90;;;;;;5097303;28;20043;-71
2021/12/19 06:22:16;;;;;;;16.40;4.63;;;7.40;99.90;;;;;;5113532;28;20040;-73
2021/12/19 06:24:41;;;;;;;13.65;4.85;;;7.90;99.90;;;;;;5105082;28;20043;-70
2021/12/19 06:27:07;;;;;;;15.40;4.80;;;9.10;99.90;;;;;;5099971;28;20051;-71
2021/12/19 06:29:33;;;;;;;10.38;4.07;;;7.50;99.90;;;;;;5099884;28;20055;-71
2021/12/19 06:32:00;;;;;;;14.73;4.18;;;8.10;99.90;;;;;;5083066;28;20040;-70
2021/12/19 06:34:26;;;;;;;7.97;3.20;;;7.40;99.90;;;;;;5083297;28;20043;-70
2021/12/19 06:36:52;;;;;;;12.55;3.00;;;7.50;99.90;;;;;;5100073;28;20544;-71
2021/12/19 06:39:22;;;;;;;10.10;2.47;;;7.60;99.90;;;;;;5100442;28;20047;-71
2021/12/19 06:41:49;;;;;;;7.65;2.13;;;;;;;;;;5100484;28;20036;-70
2021/12/19 06:44:15;;;;;;;12.52;2.10;;;7.50;99.90;;;;;;5099567;28;20050;-71
2021/12/19 06:46:41;;;;;;;5.90;2.00;;;7.50;99.90;;;;;;5114454;28;20382;-70
2021/12/19 06:49:08;;;;;;;6.30;2.03;;;7.40;99.90;;;;;;5096336;28;20069;-70
2021/12/19 06:51:34;;;;;;;10.98;2.83;;;;;;;;;;5079814;28;20039;-70
2021/12/19 06:54:00;;;;;;;8.52;2.20;;;7.50;99.90;;;;;;5097087;28;20376;-70
2021/12/19 06:56:26;;;;;;;10.85;2.25;;;7.10;99.90;;;;;;5080582;28;20035;-70
2021/12/19 06:58:52;;;;;;;8.35;2.30;;;10.60;99.90;;;;;;5095926;28;20036;-70
2021/12/19 07:01:18;;;;;;;12.20;2.60;;;;;;;;;;5096378;28;20051;-70
2021/12/19 07:03:43;;;;;;;9.05;2.47;;;7.40;99.90;;;;;;5096890;28;20119;-70
2021/12/19 07:06:09;;;;;;;8.60;2.60;;;7.40;99.90;;;;;;5096761;28;20090;-70
2021/12/19 07:08:35;;;;;;;10.18;2.80;;;7.10;99.90;;;;;;5095381;28;20050;-70
2021/12/19 07:11:01;;;;;;;8.02;2.53;;;7.40;99.90;;;;;;5095304;28;20036;-70
2021/12/19 07:13:26;;;;;;;14.75;3.30;;;7.40;99.90;;;;;;5080093;28;20047;-70
2021/12/19 07:15:54;;;;;;;11.35;3.05;;;7.40;99.90;;;;;;5096181;28;20078;-70
2021/12/19 07:18:20;;;;;;;13.70;3.58;;;7.20;99.90;;;;;;5095726;28;20027;-70
2021/12/19 07:20:45;;;;;;;10.18;3.25;;;7.40;99.90;;;;;;5096473;28;20038;-70
2021/12/19 07:23:17;;;;;;;17.90;4.60;;;9.00;99.90;;;;;;5078867;28;20047;-70
2021/12/19 07:25:43;;;;;;;10.77;3.67;;;7.40;99.90;;;;;;5095750;28;20069;-70
2021/12/19 07:28:10;;;;;;;12.63;3.35;;;;;;;;;;5095421;28;20055;-70
2021/12/19 07:30:37;;;;;;;13.73;3.40;;;7.50;99.90;;;;;;5096563;28;20050;-70
2021/12/19 07:33:04;;;;;;;14.80;4.18;;;7.50;99.90;;;;;;5095000;28;20050;-70
2021/12/19 07:35:31;;;;;;;14.38;3.67;;;7.40;99.90;;;;;;5096459;28;20625;-70
2021/12/19 07:37:57;;;;;;;17.92;3.97;;;7.50;99.90;;;;;;5090375;28;20036;-70
2021/12/19 07:40:24;;;;;;;9.52;3.75;;;8.50;99.90;;;;;;5075531;28;20484;-70
2021/12/19 07:42:52;;;;;;;12.10;3.22;;;7.60;99.90;;;;;;5094778;28;20048;-70
2021/12/19 07:45:18;;;;;;;12.70;4.25;;;7.50;99.90;;;;;;5117395;27;20396;-70
2021/12/19 07:47:44;;;;;;;11.90;4.15;;;7.40;99.90;;;;;;5095341;28;20046;-70
2021/12/19 07:50:12;;;;;;;17.77;4.25;;;7.60;99.90;;;;;;5095947;28;20449;-70
2021/12/19 07:52:38;;;;;;;13.88;3.88;;;7.70;99.90;;;;;;5096135;28;20077;-70
2021/12/19 07:55:04;;;;;;;11.13;4.80;;;7.70;99.90;;;;;;5094656;28;20044;-70
2021/12/19 07:57:30;;;;;;;14.52;4.82;;;;;;;;;;5094855;28;20043;-70
2021/12/19 07:59:56;;;;;;;11.98;5.10;;;7.70;99.90;;;;;;5096691;28;20360;-70
2021/12/19 08:02:22;;;;;;;14.75;4.18;;;7.60;99.90;;;;;;5078077;28;20039;-70
2021/12/19 08:04:48;;;;;;;13.07;4.22;;;;;;;;;;5095523;28;20039;-70
2021/12/19 08:07:16;;;;;;;12.98;3.90;;;7.70;99.90;;;;;;5095264;28;20432;-70
2021/12/19 08:09:59;;;;;;;13.27;3.83;;;10.80;99.90;;;;;;5088660;28;20036;-70
2021/12/19 08:12:25;;;;;;;11.95;3.38;;;8.10;99.90;;;;;;5075378;28;20094;-70
2021/12/19 08:14:51;;;;;;;13.82;3.67;;;7.50;99.90;;;;;;5087787;28;20365;-70
2021/12/19 08:17:17;;;;;;;15.23;3.30;;;;;;;;;;5073924;28;20047;-70
2021/12/19 08:19:43;;;;;;;8.65;3.05;;;7.70;99.90;;;;;;5094460;28;20043;-71
2021/12/19 08:22:09;;;;;;;19.23;4.25;;;7.50;99.90;;;;;;5082411;28;20044;-71
2021/12/19 08:24:35;;;;;;;9.02;2.83;;;7.70;99.90;;;;;;5094753;28;20046;-70
2021/12/19 08:27:01;;;;;;;12.23;3.83;;;7.60;99.90;;;;;;5094584;28;20080;-71
2021/12/19 08:29:27;;;;;;;18.38;3.55;;;7.70;99.90;;;;;;5088532;28;20134;-70
2021/12/19 08:31:53;;;;;;;13.60;3.40;;;8.50;99.90;;;;;;5081955;28;20100;-71
2021/12/19 08:34:19;;;;;;;12.07;3.80;;;9.30;99.90;;;;;;5090784;28;20564;-70
2021/12/19 08:36:45;;;;;;;12.48;4.18;;;8.00;99.90;;;;;;5092565;28;20046;-71
2021/12/19 08:39:12;;;;;;;13.57;3.33;;;7.70;99.90;;;;;;5085911;28;20119;-70
2021/12/19 08:41:38;;;;;;;15.65;3.38;;;;;;;;;;5100029;28;20048;-71
2021/12/19 08:44:04;;;;;;;13.10;3.13;;;7.70;99.90;;;;;;5075339;28;20028;-71
2021/12/19 08:46:32;;;;;;;9.90;3.00;;;8.70;99.90;;;;;;5092814;28;20399;-71
2021/12/19 08:48:59;;;;;;;15.63;3.97;;;7.70;99.90;;;;;;5092499;28;20084;-71
2021/12/19 08:51:26;;;;;;;10.65;3.30;;;7.60;99.90;;;;;;5093416;28;20082;-71
2021/12/19 08:53:52;;;;;;;15.07;3.65;;;7.70;99.90;;;;;;5082245;28;20075;-71
2021/12/19 08:56:18;;;;;;;7.55;3.20;;;9.50;99.90;;;;;;5090873;28;20071;-72
2021/12/19 08:58:43;;;;;;;12.75;3.50;;;7.70;99.90;;;;;;5092085;28;20036;-71
2021/12/19 09:01:09;;;;;;;15.40;3.90;;;8.00;99.90;;;;;;5074247;28;20089;-70
2021/12/19 09:03:35;;;;;;;15.13;3.40;;;;;;;;;;5092073;28;20066;-74
2021/12/19 09:06:02;;;;;;;11.65;3.13;;;7.80;99.90;;;;;;5092558;28;20035;-71
2021/12/19 09:08:28;;;;;;;12.32;3.47;;;7.50;99.90;;;;;;5075093;28;20043;-72
2021/12/19 09:10:54;;;;;;;12.20;2.92;;;;;;;;;;5090643;28;20050;-70
2021/12/19 09:13:20;;;;;;;10.18;3.13;;;7.80;99.90;;;;;;5091778;28;20047;-71
2021/12/19 09:15:46;;;;;;;15.90;8.20;;;7.50;99.90;;;;;;5091170;28;20472;-70
2021/12/19 09:18:12;;;;;;;21.67;13.18;;;8.00;99.90;;;;;;5090217;28;20110;-73
2021/12/19 09:20:37;;;;;;;22.63;14.43;;;8.00;99.90;;;;;;5074779;28;20404;-72
2021/12/19 09:23:03;;;;;;;22.80;13.05;;;7.50;99.90;;;;;;5090965;28;20558;-70
2021/12/19 09:25:28;;;;;;;27.75;15.15;;;7.40;99.90;;;;;;5090760;28;20062;-70
2021/12/19 09:27:54;;;;;;;22.63;12.48;;;7.70;99.90;;;;;;5089090;28;20071;-73
2021/12/19 09:30:20;;;;;;;15.13;8.50;;;7.50;99.90;;;;;;5091367;28;20154;-72
2021/12/19 09:32:47;;;;;;;19.70;8.88;;;7.90;99.90;;;;;;5090305;28;20432;-69
2021/12/19 09:35:14;;;;;;;16.08;8.18;;;7.70;99.90;;;;;;5091296;28;20044;-69
2021/12/19 09:37:40;;;;;;;13.82;5.28;;;7.70;99.90;;;;;;5090203;28;20044;-71
2021/12/19 09:40:10;;;;;;;14.10;4.85;;;7.80;99.90;;;;;;5085519;28;20062;-72
2021/12/19 09:42:37;;;;;;;12.63;3.95;;;7.80;99.90;;;;;;5078502;28;20044;-70
2021/12/19 09:45:04;;;;;;;12.05;4.50;;;7.50;99.90;;;;;;5090408;28;20047;-70
2021/12/19 09:47:30;;;;;;;10.20;3.58;;;7.80;99.90;;;;;;5089669;28;20039;-70
2021/12/19 09:49:57;;;;;;;15.88;4.15;;;7.70;99.90;;;;;;5074430;28;20047;-70
2021/12/19 09:52:24;;;;;;;12.48;3.97;;;7.60;99.90;;;;;;5091158;28;20077;-70
2021/12/19 09:54:50;;;;;;;10.52;4.53;;;8.10;99.90;;;;;;5090458;28;20504;-70
2021/12/19 09:57:15;;;;;;;17.33;4.40;;;8.50;99.90;;;;;;5091417;28;20070;-70
2021/12/19 09:59:43;;;;;;;13.23;4.20;;;7.60;99.90;;;;;;5088825;28;20124;-70
2021/12/19 10:02:09;;;;;;;13.45;3.83;;;8.10;99.90;;;;;;5074493;28;20402;-69
2021/12/19 10:04:40;;;;;;;19.33;4.57;;;8.10;99.90;;;;;;5089821;28;20047;-70
2021/12/19 10:07:08;;;;;;;21.17;5.55;;;8.20;99.90;;;;;;5072879;28;20494;-69
2021/12/19 10:09:42;;;;;;;13.90;4.88;;;8.00;99.90;;;;;;5091146;28;20067;-69
2021/12/19 10:15:06;;;;;;;15.15;5.05;;;8.00;99.90;;;;;;5089807;28;20043;-70
2021/12/19 10:17:32;;;;;;;13.02;5.25;;;8.00;99.90;;;;;;5090799;28;20089;-70
2021/12/19 10:19:59;;;;;;;20.80;4.45;;;7.90;99.90;;;;;;5091138;28;20388;-70
2021/12/19 10:22:26;;;;;;;23.05;5.13;;;7.90;99.90;;;;;;5093247;28;20381;-70
2021/12/19 10:24:53;;;;;;;17.45;4.80;;;7.90;99.90;;;;;;5094579;28;20055;-70
2021/12/19 10:27:37;;;;;;;13.07;4.05;;;7.80;99.90;;;;;;5093958;28;20044;-70
2021/12/19 10:30:24;;;;;;;15.85;4.05;;;8.50;99.90;;;;;;5076769;28;20488;-70
2021/12/19 10:32:52;;;;;;;14.88;3.38;;;7.70;99.90;;;;;;5080216;28;20058;-69
2021/12/19 10:35:23;;;;;;;11.48;3.85;;;8.00;99.90;;;;;;5077055;28;20465;-69
2021/12/19 10:37:49;;;;;;;7.43;2.88;;;8.00;99.90;;;;;;5093887;28;20126;-70
2021/12/19 10:40:15;;;;;;;10.57;3.13;;;8.10;99.90;;;;;;5094112;28;20361;-69
2021/12/19 10:42:47;;;;;;;10.52;3.35;;;8.20;99.90;;;;;;5092416;28;20046;-71
2021/12/19 10:45:32;;;;;;;9.82;2.50;;;7.90;99.90;;;;;;5093855;28;20043;-70
2021/12/19 10:48:16;;;;;;;12.43;2.78;;;8.10;99.90;;;;;;5077423;28;20407;-70
2021/12/19 10:50:50;;;;;;;8.32;2.65;;;8.10;99.90;;;;;;5076945;28;20600;-72
2021/12/19 10:53:17;;;;;;;14.90;3.55;;;8.00;99.90;;;;;;5093343;28;20047;-72
2021/12/19 10:55:46;;;;;;;14.00;3.92;;;8.00;99.90;;;;;;5078139;28;20440;-70
2021/12/19 10:58:39;;;;;;;12.90;3.33;;;8.60;99.90;;;;;;5092985;28;20097;-70
2021/12/19 11:01:16;;;;;;;11.02;2.80;;;8.10;99.90;;;;;;5076941;28;20044;-70
2021/12/19 11:03:49;;;;;;;10.68;2.65;;;8.60;99.90;;;;;;5093713;28;20444;-69
2021/12/19 11:06:18;;;;;;;12.43;2.63;;;8.40;99.90;;;;;;5092807;28;20052;-69
2021/12/19 11:08:45;;;;;;;7.43;2.60;;;8.20;99.90;;;;;;5094173;28;20063;-68
2021/12/19 11:11:12;;;;;;;9.48;3.15;;;7.80;99.90;;;;;;5093972;28;20395;-68
2021/12/19 11:13:38;;;;;;;14.93;3.58;;;8.20;99.90;;;;;;5090928;28;20542;-68
2021/12/19 11:16:04;;;;;;;14.52;2.53;;;8.20;99.90;;;;;;5088956;28;20043;-68
2021/12/19 11:18:30;;;;;;;13.65;4.03;;;8.20;99.90;;;;;;5092763;28;20039;-68
2021/12/19 11:20:56;;;;;;;11.50;3.50;;;7.80;99.90;;;;;;5093802;28;20055;-68
2021/12/19 11:23:23;;;;;;;16.75;2.95;;;;;;;;;;5093407;28;20062;-68
2021/12/19 11:25:49;;;;;;;12.20;3.03;;;8.20;99.90;;;;;;5092649;28;20043;-68
2021/12/19 11:28:15;;;;;;;13.02;3.35;;;8.20;99.90;;;;;;5089176;28;20056;-68
2021/12/19 11:30:41;;;;;;;11.75;3.70;;;8.20;99.90;;;;;;5090403;28;20123;-68
2021/12/19 11:33:27;;;;;;;11.32;3.30;;;8.20;99.90;;;;;;5089301;28;20127;-68
2021/12/19 11:35:56;;;;;;;14.23;3.40;;;8.30;99.90;;;;;;5090333;28;20063;-69
2021/12/19 11:38:23;;;;;;;17.98;4.82;;;8.30;99.90;;;;;;5088847;28;20821;-69
2021/12/19 11:40:51;;;;;;;14.07;3.10;;;8.20;99.90;;;;;;5072991;28;20043;-68
2021/12/19 11:43:17;;;;;;;12.30;4.22;;;8.30;99.90;;;;;;5089345;28;20039;-68
2021/12/19 11:48:29;;;;;;;13.55;3.33;;;8.30;99.90;;;;;;5089193;28;20121;-68
2021/12/19 11:51:04;;;;;;;14.27;3.17;;;8.30;99.90;;;;;;5072525;28;20040;-68
2021/12/19 11:53:31;;;;;;;;;;;7.80;99.90;;;;;;5088568;28;20051;-68
2021/12/19 11:56:09;;;;;;;12.95;3.03;;;8.20;99.90;;;;;;5088092;28;19959;-68
2021/12/19 11:58:48;;;;;;;12.95;3.97;;;8.30;99.90;;;;;;5070145;28;20123;-68
2021/12/19 12:01:19;;;;;;;20.27;3.40;;;8.30;99.90;;;;;;5068165;28;20040;-68
2021/12/19 12:04:11;;;;;;;11.50;3.58;;;8.60;99.90;;;;;;5088127;28;20050;-68
2021/12/19 12:06:39;;;;;;;17.90;4.38;;;8.40;99.90;;;;;;5087686;28;20039;-69
2021/12/19 12:09:15;;;;;;;16.38;3.53;;;8.40;99.90;;;;;;5089326;28;20593;-69
2021/12/19 12:12:00;;;;;;;15.38;3.95;;;8.50;99.90;;;;;;5088215;28;20401;-68
2021/12/19 12:14:31;;;;;;;11.27;2.97;;;8.10;99.90;;;;;;5086149;28;20051;-68
2021/12/19 12:17:00;;;;;;;27.55;4.68;;;8.50;99.90;;;;;;5086432;28;20328;-68
2021/12/19 12:19:43;;;;;;;17.92;3.60;;;8.30;99.90;;;;;;5086631;28;20105;-69
2021/12/19 12:22:31;;;;;;;19.05;3.85;;;8.40;99.90;;;;;;5058954;28;20044;-68
2021/12/19 12:25:10;;;;;;;16.67;3.45;;;9.50;99.90;;;;;;5088166;28;20052;-68
2021/12/19 12:27:47;;;;;;;13.63;3.90;;;8.60;99.90;;;;;;5085604;28;20052;-69
2021/12/19 12:30:28;;;;;;;18.48;3.65;;;8.60;99.90;;;;;;5088805;28;20087;-68
2021/12/19 12:32:55;;;;;;;23.45;5.25;;;8.60;99.90;;;;;;5088181;28;20055;-68
2021/12/19 12:35:22;;;;;;;16.88;3.88;;;8.20;99.90;;;;;;5088006;28;20492;-68
2021/12/19 12:37:50;;;;;;;25.17;4.28;;;8.50;99.90;;;;;;5088981;28;20059;-68
2021/12/19 12:40:45;;;;;;;15.73;4.53;;;8.30;99.90;;;;;;5088177;28;20476;-68
2021/12/19 12:43:14;;;;;;;13.25;3.58;;;8.60;99.90;;;;;;5091152;28;20059;-68
2021/12/19 12:46:01;;;;;;;14.25;4.05;;;10.00;99.90;;;;;;5089225;28;20193;-68
2021/12/19 12:48:48;;;;;;;16.20;4.32;;;8.60;99.90;;;;;;5087669;28;20074;-68
2021/12/19 12:51:41;;;;;;;17.85;5.43;;;8.60;99.90;;;;;;5087907;28;20093;-69
2021/12/19 12:54:21;;;;;;;16.83;4.60;;;8.40;99.90;;;;;;5096635;27;20067;-68
2021/12/19 12:56:54;;;;;;;15.35;3.90;;;8.40;99.90;;;;;;5081137;28;20126;-68
2021/12/19 12:59:25;;;;;;;17.33;4.18;;;8.30;99.90;;;;;;5068574;28;20127;-68
2021/12/19 13:01:54;;;;;;;16.60;3.80;;;8.70;99.90;;;;;;5070837;28;20097;-68
2021/12/19 13:04:26;;;;;;;11.30;3.70;;;8.30;99.90;;;;;;5086913;28;20043;-68
2021/12/19 13:07:02;;;;;;;15.98;3.83;;;9.30;99.90;;;;;;5087144;28;20044;-68
2021/12/19 13:09:51;;;;;;;18.15;4.05;;;8.60;99.90;;;;;;5085782;28;20110;-68
2021/12/19 13:12:20;;;;;;;15.00;3.53;;;8.60;99.90;;;;;;5079247;28;20044;-69
2021/12/19 13:14:57;;;;;;;19.48;4.75;;;8.60;99.90;;;;;;5087680;28;20736;-69
2021/12/19 13:17:27;;;;;;;20.05;3.78;;;8.60;99.90;;;;;;5086179;28;20051;-68
2021/12/19 13:19:58;;;;;;;16.42;3.85;;;9.00;99.90;;;;;;5088056;28;20075;-68
2021/12/19 13:22:49;;;;;;;14.18;4.05;;;8.10;99.90;;;;;;5087479;28;20396;-69
2021/12/19 13:25:34;;;;;;;18.20;3.85;;;8.60;99.90;;;;;;5062940;28;20063;-68
2021/12/19 13:28:03;;;;;;;24.83;4.78;;;8.60;99.90;;;;;;5087596;28;20048;-68
2021/12/19 13:30:31;;;;;;;24.50;5.53;;;8.60;99.90;;;;;;5071184;28;20439;-68
2021/12/19 13:33:08;;;;;;;14.52;4.28;;;8.60;99.90;;;;;;5086727;28;20071;-69
2021/12/19 13:35:48;;;;;;;19.80;5.43;;;8.60;99.90;;;;;;5084959;28;21406;-69
2021/12/19 13:38:22;;;;;;;16.80;4.07;;;8.60;99.90;;;;;;5065195;28;20098;-68
2021/12/19 13:40:49;;;;;;;13.60;4.30;;;8.60;99.90;;;;;;5064406;28;20124;-69
2021/12/19 13:43:24;;;;;;;21.65;4.18;;;8.60;99.90;;;;;;5070589;28;20087;-69
2021/12/19 13:45:52;;;;;;;22.17;3.83;;;8.60;99.90;;;;;;5069830;28;20559;-71
2021/12/19 13:48:31;;;;;;;14.13;4.00;;;8.50;99.90;;;;;;5087450;28;20055;-71
2021/12/19 13:51:04;;;;;;;12.85;3.28;;;10.70;99.90;;;;;;5087053;28;20055;-68
2021/12/19 13:53:36;;;;;;;13.55;3.13;;;8.50;99.90;;;;;;5102139;28;20048;-70
2021/12/19 13:56:14;;;;;;;17.25;4.18;;;8.30;99.90;;;;;;5072966;28;20488;-71
2021/12/19 13:58:46;;;;;;;12.90;3.50;;;8.40;99.90;;;;;;5089137;28;20665;-69
2021/12/19 14:01:22;;;;;;;13.57;2.97;;;8.30;99.90;;;;;;5074332;28;20504;-68
2021/12/19 14:03:54;;;;;;;9.52;2.50;;;8.40;99.90;;;;;;5089846;28;20094;-66
2021/12/19 14:06:39;;;;;;;14.38;2.25;;;8.10;99.90;;;;;;5090607;28;20051;-66
2021/12/19 14:09:13;;;;;;;10.98;2.33;;;8.00;99.90;;;;;;5076891;28;20489;-66
2021/12/19 14:11:42;;;;;;;7.13;2.58;;;8.20;99.90;;;;;;5074641;28;20048;-66
2021/12/19 14:14:32;;;;;;;9.90;1.98;;;8.30;99.90;;;;;;5090793;28;20473;-66
2021/12/19 14:17:03;;;;;;;15.35;2.55;;;8.30;99.90;;;;;;5091389;28;20392;-66